sensor_id;sensor_type;location;lat;lon;timestamp;pressure;altitude;pressure_sealevel;temperature;humidity
17593;BME280;8915;51.760;14.300;2022-08-03T00:00:48;100889.06;;;16.43;100.00
17593;BME280;8915;51.760;14.300;2022-08-03T00:03:14;100884.78;;;16.40;100.00
17593;BME280;8915;51.760;14.300;2022-08-03T00:05:41;100884.84;;;16.39;100.00
17593;BME280;8915;51.760;14.300;2022-08-03T00:08:07;100885.19;;;16.31;100.00
17593;BME280;8915;51.760;14.300;2022-08-03T00:10:33;100887.25;;;16.24;100.00
17593;BME280;8915;51.760;14.300;2022-08-03T00:13:01;100880.63;;;16.16;100.00
17593;BME280;8915;51.760;14.300;2022-08-03T00:15:28;100878.94;;;16.15;100.00
17593;BME280;8915;51.760;14.300;2022-08-03T00:17:54;100877.41;;;16.09;100.00
17593;BME280;8915;51.760;14.300;2022-08-03T00:20:20;100871.25;;;16.10;100.00
17593;BME280;8915;51.760;14.300;2022-08-03T00:22:47;100873.22;;;16.05;100.00
17593;BME280;8915;51.760;14.300;2022-08-03T00:25:13;100874.44;;;15.98;100.00
17593;BME280;8915;51.760;14.300;2022-08-03T00:27:40;100868.31;;;15.97;100.00
17593;BME280;8915;51.760;14.300;2022-08-03T00:30:08;100864.63;;;16.01;100.00
17593;BME280;8915;51.760;14.300;2022-08-03T00:32:34;100870.38;;;15.90;100.00
17593;BME280;8915;51.760;14.300;2022-08-03T00:35:01;100872.28;;;15.87;100.00
17593;BME280;8915;51.760;14.300;2022-08-03T00:37:28;100865.19;;;15.89;100.00
17593;BME280;8915;51.760;14.300;2022-08-03T00:39:56;100863.41;;;15.89;100.00
17593;BME280;8915;51.760;14.300;2022-08-03T00:44:49;100871.50;;;15.85;100.00
17593;BME280;8915;51.760;14.300;2022-08-03T00:47:17;100868.16;;;15.81;100.00
17593;BME280;8915;51.760;14.300;2022-08-03T00:49:43;100858.41;;;15.83;100.00
17593;BME280;8915;51.760;14.300;2022-08-03T00:52:10;100857.00;;;15.76;100.00
17593;BME280;8915;51.760;14.300;2022-08-03T00:54:37;100857.84;;;15.77;100.00
17593;BME280;8915;51.760;14.300;2022-08-03T00:57:03;100860.53;;;15.75;100.00
17593;BME280;8915;51.760;14.300;2022-08-03T00:59:30;100851.78;;;15.75;100.00
17593;BME280;8915;51.760;14.300;2022-08-03T01:01:56;100856.03;;;15.77;100.00
17593;BME280;8915;51.760;14.300;2022-08-03T01:04:25;100851.94;;;15.70;100.00
17593;BME280;8915;51.760;14.300;2022-08-03T01:06:57;100859.41;;;15.60;100.00
17593;BME280;8915;51.760;14.300;2022-08-03T01:09:31;100851.44;;;15.62;100.00
17593;BME280;8915;51.760;14.300;2022-08-03T01:12:05;100856.84;;;15.59;100.00
17593;BME280;8915;51.760;14.300;2022-08-03T01:14:37;100856.56;;;15.65;100.00
17593;BME280;8915;51.760;14.300;2022-08-03T01:17:08;100858.28;;;15.66;100.00
17593;BME280;8915;51.760;14.300;2022-08-03T01:19:48;100861.44;;;15.53;100.00
17593;BME280;8915;51.760;14.300;2022-08-03T01:22:38;100855.31;;;15.53;100.00
17593;BME280;8915;51.760;14.300;2022-08-03T01:25:23;100854.53;;;15.51;100.00
17593;BME280;8915;51.760;14.300;2022-08-03T01:27:57;100857.22;;;15.49;100.00
17593;BME280;8915;51.760;14.300;2022-08-03T01:30:30;100852.97;;;15.47;100.00
17593;BME280;8915;51.760;14.300;2022-08-03T01:33:00;100852.41;;;15.39;100.00
17593;BME280;8915;51.760;14.300;2022-08-03T01:35:31;100861.09;;;15.41;100.00
17593;BME280;8915;51.760;14.300;2022-08-03T01:38:01;100856.50;;;15.46;100.00
17593;BME280;8915;51.760;14.300;2022-08-03T01:40:29;100851.19;;;15.47;100.00
17593;BME280;8915;51.760;14.300;2022-08-03T01:42:59;100859.41;;;15.40;100.00
17593;BME280;8915;51.760;14.300;2022-08-03T01:45:29;100859.06;;;15.47;100.00
17593;BME280;8915;51.760;14.300;2022-08-03T01:47:56;100852.06;;;15.48;100.00
17593;BME280;8915;51.760;14.300;2022-08-03T01:50:26;100853.13;;;15.42;100.00
17593;BME280;8915;51.760;14.300;2022-08-03T01:52:55;100846.91;;;15.45;100.00
17593;BME280;8915;51.760;14.300;2022-08-03T01:55:24;100852.56;;;15.36;100.00
17593;BME280;8915;51.760;14.300;2022-08-03T01:57:53;100863.09;;;15.36;100.00
17593;BME280;8915;51.760;14.300;2022-08-03T02:00:21;100855.25;;;15.34;100.00
17593;BME280;8915;51.760;14.300;2022-08-03T02:02:51;100859.78;;;15.30;100.00
17593;BME280;8915;51.760;14.300;2022-08-03T02:05:19;100861.81;;;15.24;100.00
17593;BME280;8915;51.760;14.300;2022-08-03T02:07:46;100855.97;;;15.17;100.00
17593;BME280;8915;51.760;14.300;2022-08-03T02:10:14;100852.38;;;15.20;100.00
17593;BME280;8915;51.760;14.300;2022-08-03T02:12:44;100854.00;;;15.22;100.00
17593;BME280;8915;51.760;14.300;2022-08-03T02:15:11;100856.81;;;15.18;100.00
17593;BME280;8915;51.760;14.300;2022-08-03T02:17:41;100853.38;;;15.15;100.00
17593;BME280;8915;51.760;14.300;2022-08-03T02:20:12;100851.16;;;15.06;100.00
17593;BME280;8915;51.760;14.300;2022-08-03T02:22:39;100851.94;;;15.08;100.00
17593;BME280;8915;51.760;14.300;2022-08-03T02:25:07;100840.66;;;15.06;100.00
17593;BME280;8915;51.760;14.300;2022-08-03T02:27:34;100848.66;;;15.03;100.00
17593;BME280;8915;51.760;14.300;2022-08-03T02:30:05;100845.91;;;15.06;100.00
17593;BME280;8915;51.760;14.300;2022-08-03T02:32:35;100840.97;;;14.99;100.00
17593;BME280;8915;51.760;14.300;2022-08-03T02:35:04;100840.81;;;15.02;100.00
17593;BME280;8915;51.760;14.300;2022-08-03T02:37:38;100840.81;;;15.02;100.00
17593;BME280;8915;51.760;14.300;2022-08-03T02:40:08;100840.88;;;15.00;100.00
17593;BME280;8915;51.760;14.300;2022-08-03T02:42:37;100851.47;;;14.99;100.00
17593;BME280;8915;51.760;14.300;2022-08-03T02:45:06;100842.56;;;15.03;100.00
17593;BME280;8915;51.760;14.300;2022-08-03T02:47:37;100840.78;;;15.03;100.00
17593;BME280;8915;51.760;14.300;2022-08-03T02:50:07;100839.06;;;15.02;100.00
17593;BME280;8915;51.760;14.300;2022-08-03T02:52:36;100847.47;;;14.90;100.00
17593;BME280;8915;51.760;14.300;2022-08-03T02:55:05;100846.72;;;14.86;100.00
17593;BME280;8915;51.760;14.300;2022-08-03T02:57:34;100843.50;;;14.80;100.00
17593;BME280;8915;51.760;14.300;2022-08-03T03:00:03;100847.88;;;14.79;100.00
17593;BME280;8915;51.760;14.300;2022-08-03T03:02:30;100846.13;;;14.80;100.00
17593;BME280;8915;51.760;14.300;2022-08-03T03:04:57;100849.69;;;14.77;100.00
17593;BME280;8915;51.760;14.300;2022-08-03T03:07:25;100849.97;;;14.71;100.00
17593;BME280;8915;51.760;14.300;2022-08-03T03:09:53;100849.63;;;14.79;100.00
17593;BME280;8915;51.760;14.300;2022-08-03T03:12:20;100848.19;;;14.71;100.00
17593;BME280;8915;51.760;14.300;2022-08-03T03:14:47;100852.69;;;14.68;100.00
17593;BME280;8915;51.760;14.300;2022-08-03T03:17:16;100847.72;;;14.62;100.00
17593;BME280;8915;51.760;14.300;2022-08-03T03:19:43;100846.72;;;14.64;100.00
17593;BME280;8915;51.760;14.300;2022-08-03T03:22:11;100854.69;;;14.61;100.00
17593;BME280;8915;51.760;14.300;2022-08-03T03:24:40;100852.97;;;14.62;100.00
17593;BME280;8915;51.760;14.300;2022-08-03T03:27:09;100851.38;;;14.56;100.00
17593;BME280;8915;51.760;14.300;2022-08-03T03:29:36;100842.53;;;14.60;100.00
17593;BME280;8915;51.760;14.300;2022-08-03T03:32:02;100848.81;;;14.54;100.00
17593;BME280;8915;51.760;14.300;2022-08-03T03:34:29;100853.09;;;14.57;100.00
17593;BME280;8915;51.760;14.300;2022-08-03T03:36:55;100840.78;;;14.59;100.00
17593;BME280;8915;51.760;14.300;2022-08-03T03:39:22;100847.56;;;14.65;100.00
17593;BME280;8915;51.760;14.300;2022-08-03T03:41:48;100839.06;;;14.58;100.00
17593;BME280;8915;51.760;14.300;2022-08-03T03:44:16;100845.16;;;14.60;100.00
17593;BME280;8915;51.760;14.300;2022-08-03T03:46:43;100848.81;;;14.54;100.00
17593;BME280;8915;51.760;14.300;2022-08-03T03:49:09;100846.72;;;14.64;100.00
17593;BME280;8915;51.760;14.300;2022-08-03T03:51:36;100840.75;;;14.61;100.00
17593;BME280;8915;51.760;14.300;2022-08-03T03:54:03;100845.09;;;14.62;100.00
17593;BME280;8915;51.760;14.300;2022-08-03T03:56:31;100852.97;;;14.62;100.00
17593;BME280;8915;51.760;14.300;2022-08-03T03:58:57;100850.06;;;14.68;100.00
17593;BME280;8915;51.760;14.300;2022-08-03T04:01:25;100847.41;;;14.69;100.00
17593;BME280;8915;51.760;14.300;2022-08-03T04:03:51;100852.38;;;14.75;100.00
17593;BME280;8915;51.760;14.300;2022-08-03T04:06:18;100851.78;;;14.69;100.00
17593;BME280;8915;51.760;14.300;2022-08-03T04:09:02;100853.44;;;14.71;100.00
17593;BME280;8915;51.760;14.300;2022-08-03T04:11:49;100857.03;;;14.91;100.00
17593;BME280;8915;51.760;14.300;2022-08-03T04:14:18;100856.84;;;14.95;100.00
17593;BME280;8915;51.760;14.300;2022-08-03T04:16:49;100869.91;;;14.97;100.00
17593;BME280;8915;51.760;14.300;2022-08-03T04:19:27;100857.38;;;15.04;100.00
17593;BME280;8915;51.760;14.300;2022-08-03T04:21:59;100853.72;;;15.08;100.00
17593;BME280;8915;51.760;14.300;2022-08-03T04:24:29;100855.16;;;15.15;100.00
17593;BME280;8915;51.760;14.300;2022-08-03T04:26:58;100857.34;;;15.26;100.00
17593;BME280;8915;51.760;14.300;2022-08-03T04:29:27;100852.41;;;15.39;100.00
17593;BME280;8915;51.760;14.300;2022-08-03T04:31:57;100857.22;;;15.49;100.00
17593;BME280;8915;51.760;14.300;2022-08-03T04:34:26;100856.78;;;15.60;100.00
17593;BME280;8915;51.760;14.300;2022-08-03T04:36:57;100858.88;;;15.73;100.00
17593;BME280;8915;51.760;14.300;2022-08-03T04:39:26;100856.63;;;15.84;100.00
17593;BME280;8915;51.760;14.300;2022-08-03T04:41:55;100862.25;;;15.95;100.00
17593;BME280;8915;51.760;14.300;2022-08-03T04:44:23;100865.94;;;16.12;100.00
17593;BME280;8915;51.760;14.300;2022-08-03T04:46:51;100855.03;;;16.19;100.00
17593;BME280;8915;51.760;14.300;2022-08-03T04:49:20;100862.44;;;16.30;100.00
17593;BME280;8915;51.760;14.300;2022-08-03T04:51:47;100866.34;;;16.40;100.00
17593;BME280;8915;51.760;14.300;2022-08-03T04:54:14;100873.25;;;16.43;100.00
17593;BME280;8915;51.760;14.300;2022-08-03T04:56:41;100875.09;;;16.41;100.00
17593;BME280;8915;51.760;14.300;2022-08-03T04:59:08;100877.53;;;16.45;100.00
17593;BME280;8915;51.760;14.300;2022-08-03T05:01:35;100878.88;;;16.54;100.00
17593;BME280;8915;51.760;14.300;2022-08-03T05:04:02;100874.63;;;16.52;100.00
17593;BME280;8915;51.760;14.300;2022-08-03T05:06:30;100885.84;;;16.55;100.00
17593;BME280;8915;51.760;14.300;2022-08-03T05:08:56;100883.94;;;16.59;100.00
17593;BME280;8915;51.760;14.300;2022-08-03T05:11:23;100889.44;;;16.72;100.00
17593;BME280;8915;51.760;14.300;2022-08-03T05:13:49;100889.00;;;16.81;100.00
17593;BME280;8915;51.760;14.300;2022-08-03T05:16:15;100883.88;;;16.97;100.00
17593;BME280;8915;51.760;14.300;2022-08-03T05:18:42;100884.69;;;17.16;100.00
17593;BME280;8915;51.760;14.300;2022-08-03T05:21:10;100891.59;;;17.19;100.00
17593;BME280;8915;51.760;14.300;2022-08-03T05:23:39;100887.78;;;17.25;100.00
17593;BME280;8915;51.760;14.300;2022-08-03T05:26:05;100898.06;;;17.31;100.00
17593;BME280;8915;51.760;14.300;2022-08-03T05:28:32;100900.97;;;17.42;100.00
17593;BME280;8915;51.760;14.300;2022-08-03T05:30:58;100898.34;;;17.59;100.00
17593;BME280;8915;51.760;14.300;2022-08-03T05:33:25;100894.94;;;17.75;100.00
17593;BME280;8915;51.760;14.300;2022-08-03T05:35:51;100896.38;;;17.81;100.00
17593;BME280;8915;51.760;14.300;2022-08-03T05:38:17;100897.72;;;17.89;100.00
17593;BME280;8915;51.760;14.300;2022-08-03T05:40:45;100893.75;;;17.98;100.00
17593;BME280;8915;51.760;14.300;2022-08-03T05:43:11;100895.44;;;17.99;100.00
17593;BME280;8915;51.760;14.300;2022-08-03T05:45:38;100903.28;;;18.01;100.00
17593;BME280;8915;51.760;14.300;2022-08-03T05:48:05;100898.59;;;18.06;100.00
17593;BME280;8915;51.760;14.300;2022-08-03T05:50:31;100900.66;;;18.16;100.00
17593;BME280;8915;51.760;14.300;2022-08-03T05:52:57;100898.47;;;18.25;100.00
17593;BME280;8915;51.760;14.300;2022-08-03T05:55:24;100900.97;;;18.28;100.00
17593;BME280;8915;51.760;14.300;2022-08-03T05:57:52;100901.66;;;18.31;100.00
17593;BME280;8915;51.760;14.300;2022-08-03T06:00:19;100911.84;;;18.38;100.00
17593;BME280;8915;51.760;14.300;2022-08-03T06:02:45;100905.75;;;18.53;100.00
17593;BME280;8915;51.760;14.300;2022-08-03T06:05:12;100912.91;;;18.67;100.00
17593;BME280;8915;51.760;14.300;2022-08-03T06:07:38;100913.06;;;18.80;100.00
17593;BME280;8915;51.760;14.300;2022-08-03T06:10:05;100917.44;;;18.97;100.00
17593;BME280;8915;51.760;14.300;2022-08-03T06:12:33;100909.66;;;19.09;100.00
17593;BME280;8915;51.760;14.300;2022-08-03T06:15:01;100918.41;;;19.26;100.00
17593;BME280;8915;51.760;14.300;2022-08-03T06:17:28;100914.13;;;19.39;100.00
17593;BME280;8915;51.760;14.300;2022-08-03T06:19:55;100911.88;;;19.47;98.42
17593;BME280;8915;51.760;14.300;2022-08-03T06:22:21;100912.09;;;19.59;99.62
17593;BME280;8915;51.760;14.300;2022-08-03T06:24:48;100910.38;;;19.74;99.34
17593;BME280;8915;51.760;14.300;2022-08-03T06:27:14;100910.28;;;19.90;97.83
17593;BME280;8915;51.760;14.300;2022-08-03T06:29:40;100911.88;;;20.07;95.91
17593;BME280;8915;51.760;14.300;2022-08-03T06:32:08;100918.63;;;20.27;95.08
17593;BME280;8915;51.760;14.300;2022-08-03T06:34:34;100921.16;;;20.42;92.96
17593;BME280;8915;51.760;14.300;2022-08-03T06:37:01;100927.38;;;20.56;90.32
17593;BME280;8915;51.760;14.300;2022-08-03T06:39:27;100921.03;;;20.73;90.20
17593;BME280;8915;51.760;14.300;2022-08-03T06:41:53;100920.69;;;20.92;88.26
17593;BME280;8915;51.760;14.300;2022-08-03T06:44:21;100925.09;;;21.06;86.95
17593;BME280;8915;51.760;14.300;2022-08-03T06:46:47;100924.72;;;21.25;85.18
17593;BME280;8915;51.760;14.300;2022-08-03T06:49:15;100927.09;;;21.42;84.63
17593;BME280;8915;51.760;14.300;2022-08-03T06:51:41;100928.84;;;21.56;85.54
17593;BME280;8915;51.760;14.300;2022-08-03T06:54:07;100932.38;;;21.69;84.52
17593;BME280;8915;51.760;14.300;2022-08-03T06:56:34;100934.09;;;21.83;83.65
17593;BME280;8915;51.760;14.300;2022-08-03T06:59:00;100938.38;;;21.99;83.02
17593;BME280;8915;51.760;14.300;2022-08-03T07:01:26;100933.34;;;22.07;81.24
17593;BME280;8915;51.760;14.300;2022-08-03T07:03:53;100936.84;;;22.20;80.98
17593;BME280;8915;51.760;14.300;2022-08-03T07:06:21;100937.59;;;22.35;80.10
17593;BME280;8915;51.760;14.300;2022-08-03T07:08:48;100940.38;;;22.46;77.21
17593;BME280;8915;51.760;14.300;2022-08-03T07:11:14;100942.41;;;22.67;77.31
17593;BME280;8915;51.760;14.300;2022-08-03T07:13:40;100939.38;;;22.84;76.93
17593;BME280;8915;51.760;14.300;2022-08-03T07:16:07;100934.88;;;22.98;75.94
17593;BME280;8915;51.760;14.300;2022-08-03T07:18:37;100934.41;;;23.17;75.50
17593;BME280;8915;51.760;14.300;2022-08-03T07:21:03;100924.19;;;23.35;76.54
17593;BME280;8915;51.760;14.300;2022-08-03T07:23:31;100927.38;;;23.51;74.23
17593;BME280;8915;51.760;14.300;2022-08-03T07:25:57;100922.00;;;23.64;72.39
17593;BME280;8915;51.760;14.300;2022-08-03T07:28:24;100924.56;;;23.77;70.79
17593;BME280;8915;51.760;14.300;2022-08-03T07:30:50;100923.75;;;23.99;71.02
17593;BME280;8915;51.760;14.300;2022-08-03T07:33:17;100927.66;;;24.17;67.56
17593;BME280;8915;51.760;14.300;2022-08-03T07:35:43;100933.31;;;24.35;67.67
17593;BME280;8915;51.760;14.300;2022-08-03T07:38:09;100928.97;;;24.46;67.79
17593;BME280;8915;51.760;14.300;2022-08-03T07:40:37;100938.91;;;24.66;64.73
17593;BME280;8915;51.760;14.300;2022-08-03T07:43:03;100930.50;;;24.82;63.35
17593;BME280;8915;51.760;14.300;2022-08-03T07:45:30;100933.84;;;25.07;61.54
17593;BME280;8915;51.760;14.300;2022-08-03T07:47:56;100933.19;;;25.26;59.42
17593;BME280;8915;51.760;14.300;2022-08-03T07:50:23;100932.28;;;25.37;58.86
17593;BME280;8915;51.760;14.300;2022-08-03T07:52:49;100923.75;;;25.43;58.78
17593;BME280;8915;51.760;14.300;2022-08-03T07:55:19;100925.03;;;25.48;58.72
17593;BME280;8915;51.760;14.300;2022-08-03T07:57:58;100929.81;;;25.66;55.70
17593;BME280;8915;51.760;14.300;2022-08-03T08:00:24;100931.63;;;25.86;52.85
17593;BME280;8915;51.760;14.300;2022-08-03T08:02:51;100921.31;;;26.03;53.56
17593;BME280;8915;51.760;14.300;2022-08-03T08:05:17;100925.56;;;26.05;52.43
17593;BME280;8915;51.760;14.300;2022-08-03T08:07:44;100916.31;;;26.10;51.78
17593;BME280;8915;51.760;14.300;2022-08-03T08:10:10;100917.59;;;26.15;51.10
17593;BME280;8915;51.760;14.300;2022-08-03T08:12:38;100919.22;;;26.37;50.94
17593;BME280;8915;51.760;14.300;2022-08-03T08:15:07;100920.69;;;26.51;47.98
17593;BME280;8915;51.760;14.300;2022-08-03T08:17:40;100917.19;;;26.60;50.80
17593;BME280;8915;51.760;14.300;2022-08-03T08:20:08;100914.56;;;26.70;50.08
17593;BME280;8915;51.760;14.300;2022-08-03T08:22:35;100920.19;;;26.96;48.89
17593;BME280;8915;51.760;14.300;2022-08-03T08:25:01;100917.38;;;26.98;48.87
17593;BME280;8915;51.760;14.300;2022-08-03T08:27:28;100917.97;;;27.11;48.75
17593;BME280;8915;51.760;14.300;2022-08-03T08:29:54;100911.47;;;27.14;49.73
17593;BME280;8915;51.760;14.300;2022-08-03T08:32:22;100918.41;;;27.16;48.50
17593;BME280;8915;51.760;14.300;2022-08-03T08:34:48;100908.81;;;27.24;48.81
17593;BME280;8915;51.760;14.300;2022-08-03T08:37:15;100910.09;;;27.39;47.92
17593;BME280;8915;51.760;14.300;2022-08-03T08:39:41;100916.69;;;27.54;45.58
17593;BME280;8915;51.760;14.300;2022-08-03T08:42:08;100915.28;;;27.60;45.83
17593;BME280;8915;51.760;14.300;2022-08-03T08:44:35;100915.28;;;27.60;47.10
17593;BME280;8915;51.760;14.300;2022-08-03T08:47:02;100915.81;;;27.73;46.86
17593;BME280;8915;51.760;14.300;2022-08-03T08:49:31;100913.53;;;27.88;48.60
17593;BME280;8915;51.760;14.300;2022-08-03T08:51:58;100914.06;;;28.02;45.47
17593;BME280;8915;51.760;14.300;2022-08-03T08:54:26;100918.28;;;28.04;44.41
17593;BME280;8915;51.760;14.300;2022-08-03T08:56:54;100914.03;;;28.11;44.37
17593;BME280;8915;51.760;14.300;2022-08-03T08:59:23;100913.00;;;28.22;45.55
17593;BME280;8915;51.760;14.300;2022-08-03T09:01:50;100918.09;;;28.43;45.14
17593;BME280;8915;51.760;14.300;2022-08-03T09:04:21;100922.31;;;28.46;44.70
17593;BME280;8915;51.760;14.300;2022-08-03T09:06:49;100918.63;;;28.57;44.47
17593;BME280;8915;51.760;14.300;2022-08-03T09:09:16;100917.63;;;28.58;42.74
17593;BME280;8915;51.760;14.300;2022-08-03T09:11:42;100919.72;;;28.64;44.21
17593;BME280;8915;51.760;14.300;2022-08-03T09:14:09;100909.38;;;28.87;43.58
17593;BME280;8915;51.760;14.300;2022-08-03T09:16:36;100910.22;;;28.87;41.98
17593;BME280;8915;51.760;14.300;2022-08-03T09:19:10;100907.00;;;28.84;43.55
17593;BME280;8915;51.760;14.300;2022-08-03T09:21:38;100908.84;;;29.01;43.70
17593;BME280;8915;51.760;14.300;2022-08-03T09:24:06;100895.66;;;29.08;43.77
17593;BME280;8915;51.760;14.300;2022-08-03T09:26:34;100898.72;;;29.13;42.35
17593;BME280;8915;51.760;14.300;2022-08-03T09:29:03;100902.81;;;29.17;43.00
17593;BME280;8915;51.760;14.300;2022-08-03T09:31:31;100889.47;;;29.25;45.16
17593;BME280;8915;51.760;14.300;2022-08-03T09:34:00;100894.56;;;29.37;42.12
17593;BME280;8915;51.760;14.300;2022-08-03T09:36:37;100892.63;;;29.47;43.69
17593;BME280;8915;51.760;14.300;2022-08-03T09:39:07;100881.63;;;29.58;43.99
17593;BME280;8915;51.760;14.300;2022-08-03T09:41:36;100892.06;;;29.61;42.99
17593;BME280;8915;51.760;14.300;2022-08-03T09:44:02;100887.53;;;29.62;41.87
17593;BME280;8915;51.760;14.300;2022-08-03T09:46:28;100891.75;;;29.64;41.23
17593;BME280;8915;51.760;14.300;2022-08-03T09:49:10;100891.88;;;29.81;43.41
17593;BME280;8915;51.760;14.300;2022-08-03T09:51:37;100889.41;;;29.88;41.96
17593;BME280;8915;51.760;14.300;2022-08-03T09:54:04;100880.00;;;29.92;41.91
17593;BME280;8915;51.760;14.300;2022-08-03T09:56:43;100886.41;;;29.99;39.46
17593;BME280;8915;51.760;14.300;2022-08-03T09:59:12;100878.84;;;29.94;39.55
17593;BME280;8915;51.760;14.300;2022-08-03T10:01:39;100875.56;;;30.09;42.02
17593;BME280;8915;51.760;14.300;2022-08-03T10:04:11;100877.78;;;30.21;42.11
17593;BME280;8915;51.760;14.300;2022-08-03T10:06:38;100880.97;;;30.25;41.53
17593;BME280;8915;51.760;14.300;2022-08-03T10:09:06;100881.59;;;30.45;39.55
17593;BME280;8915;51.760;14.300;2022-08-03T10:11:33;100878.75;;;30.55;39.29
17593;BME280;8915;51.760;14.300;2022-08-03T10:14:03;100877.94;;;30.63;38.93
17593;BME280;8915;51.760;14.300;2022-08-03T10:16:33;100870.38;;;30.66;39.70
17593;BME280;8915;51.760;14.300;2022-08-03T10:18:59;100876.25;;;30.78;39.49
17593;BME280;8915;51.760;14.300;2022-08-03T10:21:29;100876.09;;;30.71;39.76
17593;BME280;8915;51.760;14.300;2022-08-03T10:23:57;100870.03;;;30.77;39.01
17593;BME280;8915;51.760;14.300;2022-08-03T10:26:26;100863.31;;;30.82;39.67
17593;BME280;8915;51.760;14.300;2022-08-03T10:28:55;100868.03;;;30.80;37.76
17593;BME280;8915;51.760;14.300;2022-08-03T10:31:25;100857.09;;;30.81;37.60
17593;BME280;8915;51.760;14.300;2022-08-03T10:33:57;100859.31;;;30.94;38.26
17593;BME280;8915;51.760;14.300;2022-08-03T10:36:26;100858.16;;;31.05;38.43
17593;BME280;8915;51.760;14.300;2022-08-03T10:38:55;100857.47;;;31.11;37.75
17593;BME280;8915;51.760;14.300;2022-08-03T10:41:25;100854.94;;;31.18;38.05
17593;BME280;8915;51.760;14.300;2022-08-03T10:43:58;100858.66;;;31.08;38.42
17593;BME280;8915;51.760;14.300;2022-08-03T10:46:30;100855.28;;;31.14;38.86
17593;BME280;8915;51.760;14.300;2022-08-03T10:48:58;100849.88;;;31.14;37.44
17593;BME280;8915;51.760;14.300;2022-08-03T10:51:25;100851.75;;;31.22;37.08
17593;BME280;8915;51.760;14.300;2022-08-03T10:53:56;100844.13;;;31.42;36.18
17593;BME280;8915;51.760;14.300;2022-08-03T10:56:37;100841.59;;;31.57;36.87
17593;BME280;8915;51.760;14.300;2022-08-03T10:59:56;100849.34;;;31.60;35.18
17593;BME280;8915;51.760;14.300;2022-08-03T11:05:43;100844.13;;;31.59;33.76
17593;BME280;8915;51.760;14.300;2022-08-03T11:08:20;100843.59;;;31.72;31.76
17593;BME280;8915;51.760;14.300;2022-08-03T11:10:47;100834.16;;;31.67;31.65
17593;BME280;8915;51.760;14.300;2022-08-03T11:13:16;100840.94;;;31.55;31.73
17593;BME280;8915;51.760;14.300;2022-08-03T11:15:44;100839.75;;;31.58;33.81
17593;BME280;8915;51.760;14.300;2022-08-03T11:18:12;100831.84;;;31.56;35.38
17593;BME280;8915;51.760;14.300;2022-08-03T11:20:48;100828.44;;;31.70;37.30
17593;BME280;8915;51.760;14.300;2022-08-03T11:23:16;100830.41;;;31.77;35.75
17593;BME280;8915;51.760;14.300;2022-08-03T11:26:07;100829.59;;;31.76;34.94
17593;BME280;8915;51.760;14.300;2022-08-03T11:28:34;100827.34;;;31.88;34.89
17593;BME280;8915;51.760;14.300;2022-08-03T11:34:05;100828.03;;;31.82;35.56
17593;BME280;8915;51.760;14.300;2022-08-03T11:39:37;100821.47;;;31.84;32.72
17593;BME280;8915;51.760;14.300;2022-08-03T11:42:37;100821.94;;;31.96;33.50
17593;BME280;8915;51.760;14.300;2022-08-03T11:45:06;100818.34;;;32.04;33.71
17593;BME280;8915;51.760;14.300;2022-08-03T11:47:36;100815.16;;;32.08;32.88
17593;BME280;8915;51.760;14.300;2022-08-03T11:50:03;100815.09;;;32.17;29.61
17593;BME280;8915;51.760;14.300;2022-08-03T11:52:36;100807.91;;;32.09;33.12
17593;BME280;8915;51.760;14.300;2022-08-03T11:55:08;100812.09;;;32.12;32.59
17593;BME280;8915;51.760;14.300;2022-08-03T11:57:34;100807.75;;;32.11;32.88
17593;BME280;8915;51.760;14.300;2022-08-03T12:00:02;100804.91;;;31.96;34.24
17593;BME280;8915;51.760;14.300;2022-08-03T12:02:29;100803.41;;;31.93;32.98
17593;BME280;8915;51.760;14.300;2022-08-03T12:04:57;100798.03;;;31.93;32.69
17593;BME280;8915;51.760;14.300;2022-08-03T12:07:26;100798.78;;;32.10;34.51
17593;BME280;8915;51.760;14.300;2022-08-03T12:10:09;100799.22;;;32.22;33.57
17593;BME280;8915;51.760;14.300;2022-08-03T12:12:36;100798.16;;;32.31;34.84
17593;BME280;8915;51.760;14.300;2022-08-03T12:15:04;100793.44;;;32.33;34.11
17593;BME280;8915;51.760;14.300;2022-08-03T12:17:32;100799.56;;;32.50;32.02
17593;BME280;8915;51.760;14.300;2022-08-03T12:19:58;100799.84;;;32.63;31.86
17593;BME280;8915;51.760;14.300;2022-08-03T12:22:31;100803.38;;;32.56;30.32
17593;BME280;8915;51.760;14.300;2022-08-03T12:24:58;100795.66;;;32.53;30.29
17593;BME280;8915;51.760;14.300;2022-08-03T12:27:26;100794.16;;;32.50;30.15
17593;BME280;8915;51.760;14.300;2022-08-03T12:29:54;100793.97;;;32.60;28.19
17593;BME280;8915;51.760;14.300;2022-08-03T12:32:21;100791.91;;;32.62;28.04
17593;BME280;8915;51.760;14.300;2022-08-03T12:34:48;100790.63;;;32.73;28.59
17593;BME280;8915;51.760;14.300;2022-08-03T12:37:17;100790.16;;;32.69;28.31
17593;BME280;8915;51.760;14.300;2022-08-03T12:39:48;100786.63;;;32.69;28.49
17593;BME280;8915;51.760;14.300;2022-08-03T12:42:15;100786.50;;;32.62;29.01
17593;BME280;8915;51.760;14.300;2022-08-03T12:44:43;100782.13;;;32.61;28.56
17593;BME280;8915;51.760;14.300;2022-08-03T12:47:13;100781.53;;;32.74;28.84
17593;BME280;8915;51.760;14.300;2022-08-03T12:49:44;100771.59;;;32.89;28.50
17593;BME280;8915;51.760;14.300;2022-08-03T12:52:10;100778.31;;;33.08;27.26
17593;BME280;8915;51.760;14.300;2022-08-03T12:54:37;100769.41;;;33.08;27.77
17593;BME280;8915;51.760;14.300;2022-08-03T12:57:04;100775.44;;;32.95;27.38
17593;BME280;8915;51.760;14.300;2022-08-03T12:59:33;100768.34;;;32.79;29.71
17593;BME280;8915;51.760;14.300;2022-08-03T13:02:01;100778.91;;;32.57;28.91
17593;BME280;8915;51.760;14.300;2022-08-03T13:04:29;100773.22;;;32.52;30.64